Nearby Airport METAR Reports

 

KVSF - Springfield, Vermont, USA
Distance from station: WSW 8mi, 12km
Updated: 4:54pm
Clear
Clear
 Wind from ESE
Wind: ESE 7 mph , 11 km/h
Temperature: 75°F , 24°C
Dew Point: 55°F , 13°C
Humidity: 50%
Barometer: 30.06 inHg , 1017.9 hPa
Clouds: Clear
Visibility: 10 miles , 16 km
2018/08/19 20:54 KVSF 192054Z AUTO 12006KT 10SM CLR 24/13 A3006 RMK AO2 SLP179 T02440133 53001
KLEB - Lebanon, New Hampshire, USA
Distance from station: N 18mi, 29km
Updated: 4:53pm
Partly cloudy
Partly cloudy
 Wind from S
Wind: S 6 mph , 9 km/h
Temperature: 79°F , 26°C
Dew Point: 55°F , 13°C
Humidity: 45%
Barometer: 30.05 inHg , 1017.6 hPa
Clouds: Partly cloudy
Visibility: 10 miles , 16 km
Cloud details: Partly cloudy 5500 ft
2018/08/19 20:53 KLEB 192053Z 17005KT 10SM SCT055 26/13 A3005 RMK AO2 SLP166 T02610133 55001
KRUT - Rutland State, Vermont, USA
Distance from station: WNW 31mi, 50km
Updated: 5:35am
NOT Current
Light rain, Overcast
Light rain, Overcast
 Wind from SSE
Wind: SSE 3 mph , 6 km/h
Temperature: 70°F , 21°C
Dew Point: 68°F , 20°C
Humidity: 94%
Barometer: 29.99 inHg , 1015.6 hPa
Summary: Light rain
Clouds: Overcast
Visibility: 10 miles , 16 km
Cloud details: Mostly cloudy 3200 ft
Overcast 4000 ft
2018/08/16 09:35 KRUT 160935Z 16003KT 10SM -RA BKN032 OVC040 21/20 A2999
 
KEEN - Keene/Dillant, New Hampshire, USA
Distance from station: S 34mi, 55km
Updated: 4:56pm
Clear
Clear
 Wind from calm
Wind: Calm
Barometer: 30.06 inHg , 1017.9 hPa
Clouds: Clear
Visibility: 10 miles , 16 km
2018/08/19 20:56 KEEN 192056Z AUTO 00000KT 10SM CLR A3006 RMK AO2 SLPNO 52003 FZRANO $
K1P1 - Plymouth, New Hampshire, USA
Distance from station: NE 42mi, 67km
Updated: 5:15pm
Clear
Clear
 Wind from E
Wind: E 8 mph , 13 km/h
Temperature: 77°F , 25°C
Dew Point: 52°F , 11°C
Humidity: 42%
Barometer: 30.06 inHg , 1017.9 hPa
Clouds: Clear
Visibility: 10 miles , 16 km
2018/08/19 21:15 K1P1 192115Z AUTO 10007KT 10SM CLR 25/11 A3006 RMK AO2 T02490109
KAFN - Jaffrey, New Hampshire, USA
Distance from station: SSE 44mi, 70km
Updated: 4:52pm
Clear
Clear
 Wind from varies
Wind: varies 3 mph , 6 km/h
Temperature: 73°F , 23°C
Dew Point: 55°F , 13°C
Humidity: 53%
Barometer: 30.09 inHg , 1019 hPa
Clouds: Clear
Visibility: 10 miles , 16 km
2018/08/19 20:52 KAFN 192052Z AUTO VRB03KT 10SM CLR 23/13 A3009 RMK AO2 SLP190 T02280128 51004
 
KCON - Concord, New Hampshire, USA
Distance from station: ESE 45mi, 73km
Updated: 4:51pm
Partly cloudy
Partly cloudy
 Wind from ESE
Wind: ESE 6 mph , 9 km/h
Temperature: 77°F , 25°C
Dew Point: 57°F , 14°C
Humidity: 51%
Barometer: 30.05 inHg , 1017.6 hPa
Clouds: Partly cloudy
Visibility: 10 miles , 16 km
Cloud details: Partly cloudy 5500 ft
2018/08/19 20:51 KCON 192051Z AUTO 12005KT 10SM SCT055 25/14 A3005 RMK AO2 SLP175 T02500139 55001
KLCI - Laconia Muni, New Hampshire, USA
Distance from station: ENE 49mi, 80km
Updated: 4:56pm
Partly cloudy
Partly cloudy
 Wind from E
Wind: E 10 mph , 17 km/h
Temperature: 75°F , 24°C
Dew Point: 55°F , 13°C
Humidity: 50%
Barometer: 30.07 inHg , 1018.3 hPa
Clouds: Partly cloudy
Visibility: 10 miles , 16 km
Cloud details: Few Clouds 5000 ft
Partly cloudy 6000 ft
2018/08/19 20:56 KLCI 192056Z AUTO 08009KT 10SM FEW050 SCT060 24/13 A3007 RMK AO2 SLP195 T02390133 53002
KDDH - Bennington, Vermont, USA
Distance from station: SW 55mi, 89km
Updated: 4:54pm
Clear
Clear
 Wind from varies
Wind: varies 5 mph , 7 km/h
Temperature: 77°F , 25°C
Dew Point: 57°F , 14°C
Humidity: 51%
Barometer: 30.06 inHg , 1017.9 hPa
Clouds: Clear
Visibility: 10 miles , 16 km
2018/08/19 20:54 KDDH 192054Z AUTO VRB04KT 10SM CLR 25/14 A3006 RMK AO2 SLP173 T02500144 53003
 
K6B0 - Middlebury, Vermont, USA
Distance from station: NW 56mi, 90km
Updated: 5:15pm
Partly cloudy
Partly cloudy
 Wind from calm
Wind: Calm
Temperature: 73°F , 23°C
Dew Point: 64°F , 18°C
Humidity: 74%
Barometer: 30.05 inHg , 1017.6 hPa
Clouds: Partly cloudy
Visibility: 10 miles , 16 km
Cloud details: Partly cloudy 5000 ft
2018/08/19 21:15 K6B0 192115Z AUTO 00000KT 10SM SCT050 23/18 A3005 RMK AO2 T02310183
KMHT - Manchester, New Hampshire, USA
Distance from station: ESE 56mi, 90km
Updated: 4:53pm
Partly cloudy
Partly cloudy
 Wind from E
Wind: E 14 mph , 22 km/h
Temperature: 73°F , 23°C
Dew Point: 59°F , 15°C
Humidity: 61%
Barometer: 30.05 inHg , 1017.6 hPa
Clouds: Partly cloudy
Visibility: 10 miles , 16 km
Cloud details: Few Clouds 5500 ft
Partly cloudy 25000 ft
2018/08/19 20:53 KMHT 192053Z 08012KT 10SM FEW055 SCT250 23/15 A3005 RMK AO2 SLP187 T02330150 53004 $
KORE - Orange, Massachusetts, USA
Distance from station: S 56mi, 90km
Updated: 4:52pm
Clear
Clear
 Wind from ENE
Wind: ENE 8 mph , 13 km/h
Temperature: 75°F , 24°C
Dew Point: 54°F , 12°C
Humidity: 47%
Barometer: 30.07 inHg , 1018.3 hPa
Clouds: Clear
Visibility: 10 miles , 16 km
2018/08/19 20:52 KORE 192052Z AUTO 07007KT 10SM CLR 24/12 A3007 RMK AO2 SLP181 T02440117 53004
 
KMPV - Montpelier/Barre, Vermont, USA
Distance from station: N 58mi, 93km
Updated: 4:51pm
Clear
Clear
 Wind from varies
Wind: varies 3 mph , 6 km/h
Temperature: 75°F , 24°C
Dew Point: 55°F , 13°C
Humidity: 50%
Barometer: 30.10 inHg , 1019.3 hPa
Clouds: Clear
Visibility: 10 miles , 16 km
2018/08/19 20:51 KMPV 192051Z AUTO VRB03KT 10SM CLR 24/13 A3010 RMK AO2 SLP191 T02440133 56002
KASH - Nashua/Boire Fld, New Hampshire, USA
Distance from station: SE 59mi, 95km
Updated: 4:56pm
Partly cloudy
Partly cloudy
 Wind from SE
Wind: SE 9 mph , 15 km/h
Temperature: 75°F , 24°C
Dew Point: 61°F , 16°C
Humidity: 61%
Barometer: 30.07 inHg , 1018.3 hPa
Clouds: Partly cloudy
Visibility: 10 miles , 16 km
Cloud details: Partly cloudy 4500 ft
2018/08/19 20:56 KASH 192056Z 13008KT 10SM SCT045 24/16 A3007 RMK AO2 SLP191 6//// T02390156 53005 PNO $
KAQW - North Adams, Massachusetts, USA
Distance from station: SW 62mi, 99km
Updated: 4:52pm
Few Clouds
Few Clouds
 Wind from ESE
Wind: ESE 8 mph , 13 km/h
Temperature: 75°F , 24°C
Dew Point: 55°F , 13°C
Humidity: 50%
Barometer: 30.05 inHg , 1017.6 hPa
Clouds: Few Clouds
Visibility: 10 miles , 16 km
Cloud details: Few Clouds 5500 ft
2018/08/19 20:52 KAQW 192052Z AUTO 12007KT 10SM FEW055 24/13 A3005 RMK AO2 SLP173 T02390133 53001
 
KGFL - Glens Falls, New York, USA
Distance from station: W 63mi, 101km
Updated: 4:53pm
Clear
Clear
 Wind from E
Wind: E 5 mph , 7 km/h
Temperature: 77°F , 25°C
Dew Point: 61°F , 16°C
Humidity: 57%
Barometer: 30.03 inHg , 1016.9 hPa
Clouds: Clear
Visibility: 10 miles , 16 km
2018/08/19 20:53 KGFL 192053Z AUTO 08004KT 10SM CLR 25/16 A3003 RMK AO2 SLP167 T02500156 56002
KFIT - Fitchburg, Massachusetts, USA
Distance from station: SSE 65mi, 105km
Updated: 4:52pm
Clear
Clear
 Wind from varies
Wind: varies 6 mph , 9 km/h
Temperature: 72°F , 22°C
Dew Point: 57°F , 14°C
Humidity: 61%
Barometer: 30.07 inHg , 1018.3 hPa
Clouds: Clear
Visibility: 10 miles , 16 km
2018/08/19 20:52 KFIT 192052Z AUTO VRB05KT 10SM CLR 22/14 A3007 RMK AO2 SLP181 T02220139 51004
KDAW - Rochester, New Hampshire, USA
Distance from station: E 73mi, 118km
Updated: 4:51pm
Clear
Clear
 Wind from ESE
Wind: ESE 10 mph , 17 km/h
Temperature: 72°F , 22°C
Dew Point: 61°F , 16°C
Humidity: 69%
Barometer: 30.08 inHg , 1018.6 hPa
Clouds: Clear
Visibility: 10 miles , 16 km
2018/08/19 20:51 KDAW 192051Z AUTO 11009KT 10SM CLR 22/16 A3008 RMK AO2 SLP182 T02170156 53008
 
K1V4 - St. Johnsbury, Vermont, USA
Distance from station: NNE 74mi, 119km
Updated: 4:54pm

 
Temperature: 79°F , 26°C
Dew Point: 52°F , 11°C
Humidity: 39%
Barometer: 30.04 inHg , 1017.3 hPa
2018/08/19 20:54 K1V4 192054Z AUTO 26/11 A3004 RMK AO1 SLP164 T02610111 56004
KLWM - Lawrence, Massachusetts, USA
Distance from station: SE 77mi, 124km
Updated: 4:54pm
Mostly cloudy
Mostly cloudy
 Wind from E
Wind: E 10 mph , 17 km/h
Temperature: 72°F , 22°C
Dew Point: 59°F , 15°C
Humidity: 65%
Barometer: 30.10 inHg , 1019.3 hPa
Clouds: Mostly cloudy
Visibility: 10 miles , 16 km
Cloud details: Mostly cloudy 2300 ft
2018/08/19 20:54 KLWM 192054Z 09009KT 10SM BKN023 22/15 A3010 RMK AO2 SLP191 T02220150 53007

free counter page views since 4/29/2009